ILRAC LZKZ-LHKT
Flight info
| Callsign | ILRAC |
|---|---|
| Flight time | N/A |
| Altitude | 1500 |
| Route | DCT |
| Aircraft | EC30/L-V/N |
Departure
| Time | 2026-05-01 14:52 |
|---|---|
| Airport | Košice International Airport (LZKZ) |
Arrival
| Time | N/A |
|---|---|
| Airport | Kadarkút Airfield (LHKT) |
| Time | Latitude | Longitude | Altitude | Speed | Heading |
|---|---|---|---|---|---|
| 2026-05-01 14:50 | 48.67219 | 21.24025 | 749 ft | 0 kts | 295° |
| 2026-05-01 14:51 | 48.67219 | 21.24024 | 749 ft | 0 kts | 294° |
| 2026-05-01 14:51 | 48.67163 | 21.24110 | 784 ft | 36 kts | 119° |
| 2026-05-01 14:52 | 48.66093 | 21.24007 | 1049 ft | 93 kts | 204° |
| 2026-05-01 14:52 | 48.65550 | 21.23653 | 1416 ft | 86 kts | 202° |
| 2026-05-01 14:52 | 48.64286 | 21.22947 | 1766 ft | 105 kts | 199° |
| 2026-05-01 14:53 | 48.63545 | 21.22651 | 1853 ft | 114 kts | 198° |
| 2026-05-01 14:53 | 48.62734 | 21.22645 | 1913 ft | 118 kts | 174° |
| 2026-05-01 14:53 | 48.61942 | 21.22508 | 1951 ft | 122 kts | 216° |
| 2026-05-01 14:53 | 48.61282 | 21.21609 | 1744 ft | 133 kts | 236° |
| 2026-05-01 14:54 | 48.60927 | 21.20467 | 1785 ft | 120 kts | 269° |
| 2026-05-01 14:54 | 48.60742 | 21.19229 | 1753 ft | 120 kts | 269° |
| 2026-05-01 14:54 | 48.60561 | 21.17999 | 1768 ft | 122 kts | 268° |
| 2026-05-01 14:54 | 48.60365 | 21.16701 | 1750 ft | 127 kts | 268° |
| 2026-05-01 14:55 | 48.60115 | 21.15418 | 1766 ft | 125 kts | 261° |
| 2026-05-01 14:55 | 48.59795 | 21.14267 | 2030 ft | 114 kts | 254° |
| 2026-05-01 14:55 | 48.59446 | 21.13257 | 2329 ft | 107 kts | 248° |
| 2026-05-01 14:55 | 48.59064 | 21.12302 | 2631 ft | 106 kts | 245° |
| 2026-05-01 14:56 | 48.58649 | 21.11368 | 2927 ft | 106 kts | 242° |
| 2026-05-01 14:56 | 48.58178 | 21.10386 | 2937 ft | 131 kts | 242° |
| 2026-05-01 14:56 | 48.57599 | 21.09234 | 2930 ft | 140 kts | 242° |
| 2026-05-01 14:56 | 48.56970 | 21.08045 | 2932 ft | 143 kts | 241° |
| 2026-05-01 14:57 | 48.56332 | 21.06892 | 2935 ft | 143 kts | 239° |
| 2026-05-01 14:57 | 48.55011 | 21.04609 | 2942 ft | 145 kts | 237° |
| 2026-05-01 14:57 | 48.54321 | 21.03456 | 2939 ft | 147 kts | 237° |
| 2026-05-01 14:58 | 48.53624 | 21.02306 | 2940 ft | 147 kts | 236° |
| 2026-05-01 14:58 | 48.52918 | 21.01157 | 2939 ft | 147 kts | 236° |
| 2026-05-01 14:58 | 48.52217 | 21.00020 | 2936 ft | 148 kts | 236° |
| 2026-05-01 14:58 | 48.51507 | 20.98878 | 2936 ft | 148 kts | 236° |
| 2026-05-01 14:59 | 48.50806 | 20.97755 | 2933 ft | 148 kts | 236° |
| 2026-05-01 14:59 | 48.50085 | 20.96599 | 2936 ft | 148 kts | 236° |
| 2026-05-01 14:59 | 48.49379 | 20.95470 | 2934 ft | 148 kts | 236° |
| 2026-05-01 14:59 | 48.48655 | 20.94316 | 2934 ft | 148 kts | 236° |
| 2026-05-01 15:00 | 48.47226 | 20.92038 | 2935 ft | 148 kts | 236° |
| 2026-05-01 15:00 | 48.46512 | 20.90901 | 2934 ft | 148 kts | 236° |
| 2026-05-01 15:00 | 48.45805 | 20.89775 | 2932 ft | 147 kts | 236° |
| 2026-05-01 15:01 | 48.45089 | 20.88639 | 2938 ft | 147 kts | 235° |
| 2026-05-01 15:01 | 48.44374 | 20.87504 | 2943 ft | 148 kts | 235° |
| 2026-05-01 15:01 | 48.43654 | 20.86361 | 2934 ft | 149 kts | 236° |
| 2026-05-01 15:01 | 48.42934 | 20.85220 | 2936 ft | 148 kts | 236° |
| 2026-05-01 15:02 | 48.42207 | 20.84074 | 2933 ft | 148 kts | 235° |
| 2026-05-01 15:02 | 48.41973 | 20.83702 | 2935 ft | 148 kts | 236° |
| 2026-05-01 15:02 | 48.40783 | 20.81815 | 2936 ft | 148 kts | 236° |
| 2026-05-01 15:02 | 48.40067 | 20.80681 | 2929 ft | 147 kts | 235° |
| 2026-05-01 15:03 | 48.39355 | 20.79553 | 2933 ft | 147 kts | 235° |
| 2026-05-01 15:03 | 48.38636 | 20.78416 | 2936 ft | 147 kts | 235° |
| 2026-05-01 15:03 | 48.37926 | 20.77294 | 2938 ft | 147 kts | 236° |
| 2026-05-01 15:03 | 48.37216 | 20.76173 | 2937 ft | 147 kts | 235° |
| 2026-05-01 15:04 | 48.36496 | 20.75039 | 2932 ft | 146 kts | 235° |
| 2026-05-01 15:04 | 48.35784 | 20.73915 | 2934 ft | 146 kts | 235° |
| 2026-05-01 15:04 | 48.35073 | 20.72793 | 2937 ft | 147 kts | 235° |
| 2026-05-01 15:04 | 48.34364 | 20.71675 | 2933 ft | 146 kts | 235° |
| 2026-05-01 15:05 | 48.33649 | 20.70549 | 2937 ft | 146 kts | 235° |
| 2026-05-01 15:05 | 48.32945 | 20.69437 | 2935 ft | 145 kts | 235° |
| 2026-05-01 15:05 | 48.32235 | 20.68321 | 2938 ft | 146 kts | 235° |
| 2026-05-01 15:05 | 48.31529 | 20.67208 | 2938 ft | 146 kts | 234° |
| 2026-05-01 15:06 | 48.30819 | 20.66091 | 2937 ft | 146 kts | 235° |
| 2026-05-01 15:06 | 48.30109 | 20.64977 | 2935 ft | 147 kts | 235° |
| 2026-05-01 15:06 | 48.29399 | 20.63861 | 2935 ft | 146 kts | 234° |
| 2026-05-01 15:06 | 48.28696 | 20.62756 | 2934 ft | 147 kts | 234° |
| 2026-05-01 15:07 | 48.27983 | 20.61639 | 2935 ft | 146 kts | 234° |
| 2026-05-01 15:07 | 48.27281 | 20.60534 | 2938 ft | 146 kts | 235° |
| 2026-05-01 15:07 | 48.26569 | 20.59416 | 2940 ft | 147 kts | 234° |
| 2026-05-01 15:07 | 48.25860 | 20.58305 | 2939 ft | 148 kts | 234° |
| 2026-05-01 15:08 | 48.25141 | 20.57178 | 2944 ft | 148 kts | 234° |
| 2026-05-01 15:08 | 48.24417 | 20.56044 | 2935 ft | 148 kts | 235° |
| 2026-05-01 15:08 | 48.23699 | 20.54917 | 2938 ft | 148 kts | 234° |
| 2026-05-01 15:08 | 48.22971 | 20.53776 | 2937 ft | 148 kts | 234° |
| 2026-05-01 15:09 | 48.22257 | 20.52658 | 2941 ft | 147 kts | 235° |
| 2026-05-01 15:09 | 48.21538 | 20.51532 | 2931 ft | 148 kts | 234° |
| 2026-05-01 15:09 | 48.20821 | 20.50411 | 2939 ft | 148 kts | 235° |
| 2026-05-01 15:09 | 48.20098 | 20.49280 | 2939 ft | 148 kts | 235° |
| 2026-05-01 15:10 | 48.19360 | 20.48131 | 2926 ft | 149 kts | 234° |
| 2026-05-01 15:10 | 48.17933 | 20.45902 | 2936 ft | 148 kts | 234° |
| 2026-05-01 15:10 | 48.17208 | 20.44772 | 2935 ft | 148 kts | 235° |
| 2026-05-01 15:11 | 48.16498 | 20.43660 | 2932 ft | 148 kts | 234° |
| 2026-05-01 15:11 | 48.15041 | 20.41391 | 2939 ft | 148 kts | 234° |
| 2026-05-01 15:11 | 48.14339 | 20.40297 | 2935 ft | 148 kts | 234° |
| 2026-05-01 15:12 | 48.13622 | 20.39181 | 2934 ft | 148 kts | 234° |
| 2026-05-01 15:12 | 48.12170 | 20.36919 | 2931 ft | 148 kts | 234° |
| 2026-05-01 15:12 | 48.11442 | 20.35789 | 2934 ft | 148 kts | 234° |
| 2026-05-01 15:13 | 48.09776 | 20.33201 | 2930 ft | 148 kts | 233° |